sensor_id;sensor_type;location;lat;lon;timestamp;pressure;altitude;pressure_sealevel;temperature;humidity
8075;BME280;4080;42.676;23.372;2023-05-01T00:01:10;95067.94;;;12.32;100.00
8075;BME280;4080;42.676;23.372;2023-05-01T00:03:39;95076.16;;;12.30;100.00
8075;BME280;4080;42.676;23.372;2023-05-01T00:06:05;95072.78;;;12.25;100.00
8075;BME280;4080;42.676;23.372;2023-05-01T00:08:32;95075.97;;;12.17;100.00
8075;BME280;4080;42.676;23.372;2023-05-01T00:11:01;95080.25;;;12.12;100.00
8075;BME280;4080;42.676;23.372;2023-05-01T00:13:28;95076.34;;;12.05;100.00
8075;BME280;4080;42.676;23.372;2023-05-01T00:15:55;95066.09;;;11.93;100.00
8075;BME280;4080;42.676;23.372;2023-05-01T00:18:22;95072.66;;;12.01;100.00
8075;BME280;4080;42.676;23.372;2023-05-01T00:20:50;95070.28;;;11.99;100.00
8075;BME280;4080;42.676;23.372;2023-05-01T00:23:16;95066.88;;;11.99;100.00
8075;BME280;4080;42.676;23.372;2023-05-01T00:25:43;95071.38;;;11.93;100.00
8075;BME280;4080;42.676;23.372;2023-05-01T00:28:10;95068.22;;;11.91;100.00
8075;BME280;4080;42.676;23.372;2023-05-01T00:30:36;95077.25;;;11.85;100.00
8075;BME280;4080;42.676;23.372;2023-05-01T00:33:03;95078.31;;;11.84;100.00
8075;BME280;4080;42.676;23.372;2023-05-01T00:35:30;95079.41;;;11.78;100.00
8075;BME280;4080;42.676;23.372;2023-05-01T00:37:58;95085.78;;;11.67;100.00
8075;BME280;4080;42.676;23.372;2023-05-01T00:40:24;95089.47;;;11.61;100.00
8075;BME280;4080;42.676;23.372;2023-05-01T00:42:52;95052.66;;;11.25;100.00
8075;BME280;4080;42.676;23.372;2023-05-01T00:45:19;95091.66;;;11.48;100.00
8075;BME280;4080;42.676;23.372;2023-05-01T00:47:46;95086.94;;;11.45;100.00
8075;BME280;4080;42.676;23.372;2023-05-01T00:50:13;95086.41;;;11.43;100.00
8075;BME280;4080;42.676;23.372;2023-05-01T00:52:40;95086.69;;;11.42;100.00
8075;BME280;4080;42.676;23.372;2023-05-01T00:55:08;95039.81;;;11.08;100.00
8075;BME280;4080;42.676;23.372;2023-05-01T00:57:35;95092.75;;;11.42;100.00
8075;BME280;4080;42.676;23.372;2023-05-01T01:00:03;95096.47;;;11.41;100.00
8075;BME280;4080;42.676;23.372;2023-05-01T01:02:30;95098.56;;;11.39;100.00
8075;BME280;4080;42.676;23.372;2023-05-01T01:04:57;95100.19;;;11.35;100.00
8075;BME280;4080;42.676;23.372;2023-05-01T01:07:31;95101.75;;;11.31;100.00
8075;BME280;4080;42.676;23.372;2023-05-01T01:10:04;95088.88;;;11.19;100.00
8075;BME280;4080;42.676;23.372;2023-05-01T01:12:43;95100.47;;;11.24;100.00
8075;BME280;4080;42.676;23.372;2023-05-01T01:15:17;95109.72;;;11.21;100.00
8075;BME280;4080;42.676;23.372;2023-05-01T01:17:49;95103.66;;;11.15;100.00
8075;BME280;4080;42.676;23.372;2023-05-01T01:20:30;95089.44;;;10.96;100.00
8075;BME280;4080;42.676;23.372;2023-05-01T01:23:11;95118.47;;;11.11;100.00
8075;BME280;4080;42.676;23.372;2023-05-01T01:25:55;95118.22;;;11.08;100.00
8075;BME280;4080;42.676;23.372;2023-05-01T01:31:48;95123.25;;;10.84;100.00
8075;BME280;4080;42.676;23.372;2023-05-01T01:34:24;95112.19;;;10.72;100.00
8075;BME280;4080;42.676;23.372;2023-05-01T01:36:59;95128.81;;;10.77;100.00
8075;BME280;4080;42.676;23.372;2023-05-01T01:39:30;95122.22;;;10.75;100.00
8075;BME280;4080;42.676;23.372;2023-05-01T01:42:05;95120.91;;;10.72;100.00
8075;BME280;4080;42.676;23.372;2023-05-01T01:44:37;95116.94;;;10.60;100.00
8075;BME280;4080;42.676;23.372;2023-05-01T01:47:09;95119.03;;;10.37;100.00
8075;BME280;4080;42.676;23.372;2023-05-01T01:49:43;95102.94;;;10.18;100.00
8075;BME280;4080;42.676;23.372;2023-05-01T01:52:12;95117.72;;;10.24;100.00
8075;BME280;4080;42.676;23.372;2023-05-01T01:54:44;95108.50;;;10.27;100.00
8075;BME280;4080;42.676;23.372;2023-05-01T01:57:16;95096.91;;;10.23;100.00
8075;BME280;4080;42.676;23.372;2023-05-01T01:59:45;95084.97;;;10.00;100.00
8075;BME280;4080;42.676;23.372;2023-05-01T02:02:15;95100.78;;;10.05;100.00
8075;BME280;4080;42.676;23.372;2023-05-01T02:04:44;95112.38;;;9.99;100.00
8075;BME280;4080;42.676;23.372;2023-05-01T02:07:12;95095.75;;;9.88;100.00
8075;BME280;4080;42.676;23.372;2023-05-01T02:09:40;95117.13;;;9.97;100.00
8075;BME280;4080;42.676;23.372;2023-05-01T02:12:08;95106.03;;;9.95;100.00
8075;BME280;4080;42.676;23.372;2023-05-01T02:14:36;95111.59;;;9.99;100.00
8075;BME280;4080;42.676;23.372;2023-05-01T02:17:04;95112.91;;;10.01;100.00
8075;BME280;4080;42.676;23.372;2023-05-01T02:19:32;95101.84;;;10.04;100.00
8075;BME280;4080;42.676;23.372;2023-05-01T02:22:01;95113.69;;;10.07;100.00
8075;BME280;4080;42.676;23.372;2023-05-01T02:24:29;95109.47;;;10.06;100.00
8075;BME280;4080;42.676;23.372;2023-05-01T02:27:03;95111.31;;;10.00;100.00
8075;BME280;4080;42.676;23.372;2023-05-01T02:29:32;95093.91;;;9.89;100.00
8075;BME280;4080;42.676;23.372;2023-05-01T02:32:00;95069.91;;;9.70;100.00
8075;BME280;4080;42.676;23.372;2023-05-01T02:34:26;95100.25;;;9.98;100.00
8075;BME280;4080;42.676;23.372;2023-05-01T02:36:53;95105.78;;;10.02;100.00
8075;BME280;4080;42.676;23.372;2023-05-01T02:39:21;95104.47;;;10.04;100.00
8075;BME280;4080;42.676;23.372;2023-05-01T02:41:48;95101.31;;;10.02;100.00
8075;BME280;4080;42.676;23.372;2023-05-01T02:44:16;95104.47;;;10.04;100.00
8075;BME280;4080;42.676;23.372;2023-05-01T02:46:46;95100.25;;;10.03;100.00
8075;BME280;4080;42.676;23.372;2023-05-01T02:49:15;95105.00;;;10.06;100.00
8075;BME280;4080;42.676;23.372;2023-05-01T02:51:44;95083.38;;;9.89;100.00
8075;BME280;4080;42.676;23.372;2023-05-01T02:54:12;95090.75;;;9.92;100.00
8075;BME280;4080;42.676;23.372;2023-05-01T02:56:41;95073.31;;;9.71;100.00
8075;BME280;4080;42.676;23.372;2023-05-01T02:59:08;95111.84;;;9.92;100.00
8075;BME280;4080;42.676;23.372;2023-05-01T03:01:34;95118.16;;;9.91;100.00
8075;BME280;4080;42.676;23.372;2023-05-01T03:04:02;95122.91;;;9.84;100.00
8075;BME280;4080;42.676;23.372;2023-05-01T03:06:28;95124.44;;;9.75;100.00
8075;BME280;4080;42.676;23.372;2023-05-01T03:08:55;95122.31;;;9.67;100.00
8075;BME280;4080;42.676;23.372;2023-05-01T03:11:22;95123.88;;;9.62;100.00
8075;BME280;4080;42.676;23.372;2023-05-01T03:13:50;95125.97;;;9.60;100.00
8075;BME280;4080;42.676;23.372;2023-05-01T03:16:16;95135.72;;;9.60;100.00
8075;BME280;4080;42.676;23.372;2023-05-01T03:18:43;95131.75;;;9.57;100.00
8075;BME280;4080;42.676;23.372;2023-05-01T03:21:10;95131.22;;;9.55;100.00
8075;BME280;4080;42.676;23.372;2023-05-01T03:23:37;95122.72;;;9.38;100.00
8075;BME280;4080;42.676;23.372;2023-05-01T03:26:04;95124.25;;;9.24;100.00
8075;BME280;4080;42.676;23.372;2023-05-01T03:28:32;95135.53;;;9.19;100.00
8075;BME280;4080;42.676;23.372;2023-05-01T03:31:00;95137.41;;;9.24;100.00
8075;BME280;4080;42.676;23.372;2023-05-01T03:33:26;95136.88;;;9.27;100.00
8075;BME280;4080;42.676;23.372;2023-05-01T03:36:00;95126.03;;;9.18;100.00
8075;BME280;4080;42.676;23.372;2023-05-01T03:38:27;95136.41;;;9.35;100.00
8075;BME280;4080;42.676;23.372;2023-05-01T03:40:54;95137.44;;;9.34;100.00
8075;BME280;4080;42.676;23.372;2023-05-01T03:43:20;95144.28;;;9.35;100.00
8075;BME280;4080;42.676;23.372;2023-05-01T03:46:06;95145.56;;;9.27;100.00
8075;BME280;4080;42.676;23.372;2023-05-01T03:48:33;95147.34;;;9.17;100.00
8075;BME280;4080;42.676;23.372;2023-05-01T03:51:01;95146.28;;;9.13;100.00
8075;BME280;4080;42.676;23.372;2023-05-01T03:53:28;95151.03;;;9.16;100.00
8075;BME280;4080;42.676;23.372;2023-05-01T03:55:56;95148.91;;;9.13;100.00
8075;BME280;4080;42.676;23.372;2023-05-01T03:58:23;95153.72;;;9.26;100.00
8075;BME280;4080;42.676;23.372;2023-05-01T04:00:50;95156.13;;;9.32;100.00
8075;BME280;4080;42.676;23.372;2023-05-01T04:03:18;95157.94;;;9.27;100.00
8075;BME280;4080;42.676;23.372;2023-05-01T04:05:44;95160.03;;;9.25;100.00
8075;BME280;4080;42.676;23.372;2023-05-01T04:08:11;95158.97;;;9.21;100.00
8075;BME280;4080;42.676;23.372;2023-05-01T04:10:38;95153.91;;;9.14;100.00
8075;BME280;4080;42.676;23.372;2023-05-01T04:13:05;95158.19;;;9.20;100.00
8075;BME280;4080;42.676;23.372;2023-05-01T04:15:31;95156.59;;;9.19;100.00
8075;BME280;4080;42.676;23.372;2023-05-01T04:17:58;95162.41;;;9.21;100.00
8075;BME280;4080;42.676;23.372;2023-05-01T04:20:27;95158.75;;;9.27;100.00
8075;BME280;4080;42.676;23.372;2023-05-01T04:22:53;95163.00;;;9.39;100.00
8075;BME280;4080;42.676;23.372;2023-05-01T04:25:20;95165.47;;;9.55;100.00
8075;BME280;4080;42.676;23.372;2023-05-01T04:27:47;95170.53;;;9.72;100.00
8075;BME280;4080;42.676;23.372;2023-05-01T04:30:13;95172.94;;;9.84;100.00
8075;BME280;4080;42.676;23.372;2023-05-01T04:32:40;95166.66;;;10.00;100.00
8075;BME280;4080;42.676;23.372;2023-05-01T04:35:08;95169.94;;;10.38;100.00
8075;BME280;4080;42.676;23.372;2023-05-01T04:37:36;95180.25;;;10.90;100.00
8075;BME280;4080;42.676;23.372;2023-05-01T04:40:03;95170.91;;;11.48;100.00
8075;BME280;4080;42.676;23.372;2023-05-01T04:42:30;95180.75;;;12.07;100.00
8075;BME280;4080;42.676;23.372;2023-05-01T04:44:56;95182.03;;;12.59;100.00
8075;BME280;4080;42.676;23.372;2023-05-01T04:47:25;95175.69;;;12.94;100.00
8075;BME280;4080;42.676;23.372;2023-05-01T04:49:52;95191.44;;;13.39;100.00
8075;BME280;4080;42.676;23.372;2023-05-01T04:52:19;95179.44;;;13.70;100.00
8075;BME280;4080;42.676;23.372;2023-05-01T04:54:47;95203.16;;;14.28;100.00
8075;BME280;4080;42.676;23.372;2023-05-01T04:57:13;95197.72;;;14.57;100.00
8075;BME280;4080;42.676;23.372;2023-05-01T04:59:40;95210.56;;;14.87;100.00
8075;BME280;4080;42.676;23.372;2023-05-01T05:02:07;95208.88;;;15.10;100.00
8075;BME280;4080;42.676;23.372;2023-05-01T05:04:34;95219.28;;;15.39;100.00
8075;BME280;4080;42.676;23.372;2023-05-01T05:07:00;95218.16;;;15.59;100.00
8075;BME280;4080;42.676;23.372;2023-05-01T05:09:27;95225.56;;;15.76;100.00
8075;BME280;4080;42.676;23.372;2023-05-01T05:11:55;95234.63;;;15.89;100.00
8075;BME280;4080;42.676;23.372;2023-05-01T05:14:22;95238.88;;;16.03;100.00
8075;BME280;4080;42.676;23.372;2023-05-01T05:16:48;95230.50;;;16.10;100.00
8075;BME280;4080;42.676;23.372;2023-05-01T05:19:15;95230.81;;;16.08;100.00
8075;BME280;4080;42.676;23.372;2023-05-01T05:21:42;95246.47;;;16.10;100.00
8075;BME280;4080;42.676;23.372;2023-05-01T05:24:09;95242.50;;;16.21;100.00
8075;BME280;4080;42.676;23.372;2023-05-01T05:26:35;95247.84;;;16.35;100.00
8075;BME280;4080;42.676;23.372;2023-05-01T05:29:04;95244.66;;;16.60;100.00
8075;BME280;4080;42.676;23.372;2023-05-01T05:31:31;95240.97;;;16.84;100.00
8075;BME280;4080;42.676;23.372;2023-05-01T05:33:57;95242.38;;;17.03;100.00
8075;BME280;4080;42.676;23.372;2023-05-01T05:36:24;95246.91;;;17.25;100.00
8075;BME280;4080;42.676;23.372;2023-05-01T05:38:52;95241.59;;;17.48;100.00
8075;BME280;4080;42.676;23.372;2023-05-01T05:41:18;95244.31;;;17.65;100.00
8075;BME280;4080;42.676;23.372;2023-05-01T05:43:45;95257.34;;;17.89;100.00
8075;BME280;4080;42.676;23.372;2023-05-01T05:46:13;95256.44;;;18.02;100.00
8075;BME280;4080;42.676;23.372;2023-05-01T05:48:40;95260.13;;;18.15;100.00
8075;BME280;4080;42.676;23.372;2023-05-01T05:51:07;95260.44;;;18.13;100.00
8075;BME280;4080;42.676;23.372;2023-05-01T05:53:33;95220.28;;;17.79;100.00
8075;BME280;4080;42.676;23.372;2023-05-01T05:56:00;95257.47;;;18.23;100.00
8075;BME280;4080;42.676;23.372;2023-05-01T05:58:27;95265.09;;;18.47;100.00
8075;BME280;4080;42.676;23.372;2023-05-01T06:00:54;95265.81;;;18.70;100.00
8075;BME280;4080;42.676;23.372;2023-05-01T06:03:22;95265.19;;;18.90;100.00
8075;BME280;4080;42.676;23.372;2023-05-01T06:05:49;95278.88;;;19.06;100.00
8075;BME280;4080;42.676;23.372;2023-05-01T06:08:15;95264.41;;;19.07;100.00
8075;BME280;4080;42.676;23.372;2023-05-01T06:10:43;95273.53;;;19.15;100.00
8075;BME280;4080;42.676;23.372;2023-05-01T06:13:10;95272.09;;;19.26;100.00
8075;BME280;4080;42.676;23.372;2023-05-01T06:15:38;95257.31;;;19.20;100.00
8075;BME280;4080;42.676;23.372;2023-05-01T06:18:05;95238.44;;;19.16;100.00
8075;BME280;4080;42.676;23.372;2023-05-01T06:20:33;95277.31;;;19.31;100.00
8075;BME280;4080;42.676;23.372;2023-05-01T06:23:00;95281.06;;;19.39;100.00
8075;BME280;4080;42.676;23.372;2023-05-01T06:25:27;95281.38;;;19.37;100.00
8075;BME280;4080;42.676;23.372;2023-05-01T06:27:53;95281.38;;;19.20;100.00
8075;BME280;4080;42.676;23.372;2023-05-01T06:30:20;95281.53;;;19.23;100.00
8075;BME280;4080;42.676;23.372;2023-05-01T06:32:47;95285.00;;;19.33;100.00
8075;BME280;4080;42.676;23.372;2023-05-01T06:35:14;95271.78;;;19.45;100.00
8075;BME280;4080;42.676;23.372;2023-05-01T06:37:42;95240.47;;;19.54;100.00
8075;BME280;4080;42.676;23.372;2023-05-01T06:40:09;95277.16;;;20.09;100.00
8075;BME280;4080;42.676;23.372;2023-05-01T06:42:36;95286.66;;;20.36;100.00
8075;BME280;4080;42.676;23.372;2023-05-01T06:45:04;95285.16;;;20.56;100.00
8075;BME280;4080;42.676;23.372;2023-05-01T06:47:31;95286.75;;;20.77;100.00
8075;BME280;4080;42.676;23.372;2023-05-01T06:49:58;95283.50;;;20.93;99.00
8075;BME280;4080;42.676;23.372;2023-05-01T06:52:25;95277.09;;;21.06;98.15
8075;BME280;4080;42.676;23.372;2023-05-01T06:57:38;95291.31;;;21.48;95.47
8075;BME280;4080;42.676;23.372;2023-05-01T07:00:06;95285.78;;;21.65;94.48
8075;BME280;4080;42.676;23.372;2023-05-01T07:02:34;95285.44;;;21.67;94.34
8075;BME280;4080;42.676;23.372;2023-05-01T07:05:02;95275.28;;;21.39;96.40
8075;BME280;4080;42.676;23.372;2023-05-01T07:07:29;95294.84;;;21.19;98.68
8075;BME280;4080;42.676;23.372;2023-05-01T07:09:57;95292.81;;;21.16;98.58
8075;BME280;4080;42.676;23.372;2023-05-01T07:12:24;95253.56;;;20.91;98.19
8075;BME280;4080;42.676;23.372;2023-05-01T07:14:51;95294.25;;;21.14;99.05
8075;BME280;4080;42.676;23.372;2023-05-01T07:17:17;95299.91;;;21.12;99.92
8075;BME280;4080;42.676;23.372;2023-05-01T07:19:44;95300.78;;;21.04;98.11
8075;BME280;4080;42.676;23.372;2023-05-01T07:22:11;95300.34;;;20.72;100.00
8075;BME280;4080;42.676;23.372;2023-05-01T07:24:37;95296.81;;;20.60;100.00
8075;BME280;4080;42.676;23.372;2023-05-01T07:27:05;95298.91;;;20.54;100.00
8075;BME280;4080;42.676;23.372;2023-05-01T07:29:32;95301.06;;;20.61;100.00
8075;BME280;4080;42.676;23.372;2023-05-01T07:32:01;95303.28;;;20.80;100.00
8075;BME280;4080;42.676;23.372;2023-05-01T07:34:29;95290.50;;;21.06;100.00
8075;BME280;4080;42.676;23.372;2023-05-01T07:36:56;95274.03;;;21.16;100.00
8075;BME280;4080;42.676;23.372;2023-05-01T07:39:23;95291.31;;;21.27;100.00
8075;BME280;4080;42.676;23.372;2023-05-01T07:41:49;95299.75;;;21.17;100.00
8075;BME280;4080;42.676;23.372;2023-05-01T07:44:17;95298.97;;;21.37;99.47
8075;BME280;4080;42.676;23.372;2023-05-01T07:46:44;95301.41;;;21.30;100.00
8075;BME280;4080;42.676;23.372;2023-05-01T07:49:11;95293.41;;;21.43;100.00
8075;BME280;4080;42.676;23.372;2023-05-01T07:51:38;95299.88;;;21.42;100.00
8075;BME280;4080;42.676;23.372;2023-05-01T07:54:04;95298.38;;;21.32;99.70
8075;BME280;4080;42.676;23.372;2023-05-01T07:56:31;95297.53;;;21.40;99.98
8075;BME280;4080;42.676;23.372;2023-05-01T07:58:58;95297.94;;;21.51;99.52
8075;BME280;4080;42.676;23.372;2023-05-01T08:01:26;95295.47;;;21.58;100.00
8075;BME280;4080;42.676;23.372;2023-05-01T08:03:52;95302.78;;;21.69;97.21
8075;BME280;4080;42.676;23.372;2023-05-01T08:06:19;95302.34;;;21.67;96.57
8075;BME280;4080;42.676;23.372;2023-05-01T08:08:46;95289.53;;;21.85;95.93
8075;BME280;4080;42.676;23.372;2023-05-01T08:11:13;95294.75;;;22.15;94.37
8075;BME280;4080;42.676;23.372;2023-05-01T08:13:40;95298.03;;;22.45;94.25
8075;BME280;4080;42.676;23.372;2023-05-01T08:16:07;95292.66;;;22.81;90.08
8075;BME280;4080;42.676;23.372;2023-05-01T08:18:35;95308.19;;;23.12;86.25
8075;BME280;4080;42.676;23.372;2023-05-01T08:21:02;95296.75;;;23.15;85.67
8075;BME280;4080;42.676;23.372;2023-05-01T08:23:28;95296.94;;;23.35;84.18
8075;BME280;4080;42.676;23.372;2023-05-01T08:25:55;95298.09;;;23.62;81.44
8075;BME280;4080;42.676;23.372;2023-05-01T08:28:22;95266.13;;;23.60;78.21
8075;BME280;4080;42.676;23.372;2023-05-01T08:30:49;95294.00;;;23.96;78.01
8075;BME280;4080;42.676;23.372;2023-05-01T08:33:15;95296.19;;;24.06;76.76
8075;BME280;4080;42.676;23.372;2023-05-01T08:35:44;95298.25;;;23.97;76.46
8075;BME280;4080;42.676;23.372;2023-05-01T08:38:10;95292.00;;;23.93;73.41
8075;BME280;4080;42.676;23.372;2023-05-01T08:40:38;95290.09;;;23.93;72.50
8075;BME280;4080;42.676;23.372;2023-05-01T08:43:06;95286.97;;;23.91;73.43
8075;BME280;4080;42.676;23.372;2023-05-01T08:45:35;95162.22;;;23.15;74.90
8075;BME280;4080;42.676;23.372;2023-05-01T08:48:04;95284.69;;;23.93;75.63
8075;BME280;4080;42.676;23.372;2023-05-01T08:50:33;95283.47;;;23.91;77.12
8075;BME280;4080;42.676;23.372;2023-05-01T08:53:03;95283.91;;;23.93;72.62
8075;BME280;4080;42.676;23.372;2023-05-01T08:55:31;95294.13;;;23.71;71.89
8075;BME280;4080;42.676;23.372;2023-05-01T08:57:58;95278.38;;;23.58;73.51
8075;BME280;4080;42.676;23.372;2023-05-01T09:00:27;95278.66;;;23.68;73.08
8075;BME280;4080;42.676;23.372;2023-05-01T09:02:59;95275.97;;;23.68;73.03
8075;BME280;4080;42.676;23.372;2023-05-01T09:05:26;95239.19;;;23.60;71.78
8075;BME280;4080;42.676;23.372;2023-05-01T09:07:54;95273.66;;;24.14;71.46
8075;BME280;4080;42.676;23.372;2023-05-01T09:10:23;95278.75;;;24.31;66.17
8075;BME280;4080;42.676;23.372;2023-05-01T09:12:55;95269.41;;;24.13;67.99
8075;BME280;4080;42.676;23.372;2023-05-01T09:15:23;95273.44;;;24.19;70.06
8075;BME280;4080;42.676;23.372;2023-05-01T09:17:51;95266.44;;;24.18;68.56
8075;BME280;4080;42.676;23.372;2023-05-01T09:20:19;95269.19;;;24.34;68.81
8075;BME280;4080;42.676;23.372;2023-05-01T09:22:45;95277.94;;;24.46;68.62
8075;BME280;4080;42.676;23.372;2023-05-01T09:25:12;95273.50;;;24.38;68.15
8075;BME280;4080;42.676;23.372;2023-05-01T09:27:41;95278.47;;;24.21;69.15
8075;BME280;4080;42.676;23.372;2023-05-01T09:30:08;95270.34;;;23.89;70.39
8075;BME280;4080;42.676;23.372;2023-05-01T09:32:35;95267.19;;;23.87;70.95
8075;BME280;4080;42.676;23.372;2023-05-01T09:35:09;95216.09;;;23.31;71.16
8075;BME280;4080;42.676;23.372;2023-05-01T09:37:36;95274.66;;;23.62;70.18
8075;BME280;4080;42.676;23.372;2023-05-01T09:40:04;95270.50;;;23.80;70.68
8075;BME280;4080;42.676;23.372;2023-05-01T09:42:31;95271.91;;;24.06;69.86
8075;BME280;4080;42.676;23.372;2023-05-01T09:45:00;95273.56;;;24.10;67.51
8075;BME280;4080;42.676;23.372;2023-05-01T09:47:32;95274.22;;;23.76;68.45
8075;BME280;4080;42.676;23.372;2023-05-01T09:49:59;95274.97;;;23.89;69.09
8075;BME280;4080;42.676;23.372;2023-05-01T09:52:26;95170.56;;;23.26;68.26
8075;BME280;4080;42.676;23.372;2023-05-01T09:55:12;95265.91;;;24.12;66.61
8075;BME280;4080;42.676;23.372;2023-05-01T09:57:40;95257.06;;;23.96;65.26
8075;BME280;4080;42.676;23.372;2023-05-01T10:00:09;95258.22;;;23.67;66.79
8075;BME280;4080;42.676;23.372;2023-05-01T10:02:37;95263.00;;;23.58;67.82
8075;BME280;4080;42.676;23.372;2023-05-01T10:05:05;95250.03;;;23.92;68.40
8075;BME280;4080;42.676;23.372;2023-05-01T10:07:32;95254.28;;;24.24;65.57
8075;BME280;4080;42.676;23.372;2023-05-01T10:10:14;95265.06;;;24.56;61.02
8075;BME280;4080;42.676;23.372;2023-05-01T10:12:41;95262.03;;;24.41;61.63
8075;BME280;4080;42.676;23.372;2023-05-01T10:15:09;95266.56;;;24.37;61.44
8075;BME280;4080;42.676;23.372;2023-05-01T10:17:37;95220.47;;;24.11;60.40
8075;BME280;4080;42.676;23.372;2023-05-01T10:20:05;95251.72;;;24.28;62.84
8075;BME280;4080;42.676;23.372;2023-05-01T10:22:32;95253.78;;;24.19;64.96
8075;BME280;4080;42.676;23.372;2023-05-01T10:24:59;95212.03;;;23.81;64.51
8075;BME280;4080;42.676;23.372;2023-05-01T10:27:27;95249.22;;;23.75;60.43
8075;BME280;4080;42.676;23.372;2023-05-01T10:29:53;95246.84;;;23.58;60.11
8075;BME280;4080;42.676;23.372;2023-05-01T10:32:22;95246.78;;;23.70;60.97
8075;BME280;4080;42.676;23.372;2023-05-01T10:34:51;95242.16;;;23.87;58.33
8075;BME280;4080;42.676;23.372;2023-05-01T10:37:23;95256.28;;;23.96;57.19
8075;BME280;4080;42.676;23.372;2023-05-01T10:39:52;95238.56;;;23.95;57.30
8075;BME280;4080;42.676;23.372;2023-05-01T10:42:19;95243.56;;;24.12;57.92
8075;BME280;4080;42.676;23.372;2023-05-01T10:44:46;95241.75;;;24.63;58.34
8075;BME280;4080;42.676;23.372;2023-05-01T10:47:46;95243.53;;;24.75;58.14
8075;BME280;4080;42.676;23.372;2023-05-01T10:50:13;95236.03;;;24.02;58.48
8075;BME280;4080;42.676;23.372;2023-05-01T10:53:17;95245.63;;;23.15;60.57
8075;BME280;4080;42.676;23.372;2023-05-01T10:55:46;95227.91;;;22.50;64.26
8075;BME280;4080;42.676;23.372;2023-05-01T11:01:29;95234.69;;;21.41;67.98
8075;BME280;4080;42.676;23.372;2023-05-01T11:03:59;95238.91;;;21.30;67.84
8075;BME280;4080;42.676;23.372;2023-05-01T11:06:26;95245.03;;;21.09;69.67
8075;BME280;4080;42.676;23.372;2023-05-01T11:08:53;95240.34;;;21.27;68.79
8075;BME280;4080;42.676;23.372;2023-05-01T11:11:48;95240.25;;;21.69;66.62
8075;BME280;4080;42.676;23.372;2023-05-01T11:14:15;95208.63;;;21.99;65.21
8075;BME280;4080;42.676;23.372;2023-05-01T11:16:44;95229.47;;;22.75;64.89
8075;BME280;4080;42.676;23.372;2023-05-01T11:19:46;95236.91;;;23.06;61.85
8075;BME280;4080;42.676;23.372;2023-05-01T11:22:16;95234.13;;;23.03;60.29
8075;BME280;4080;42.676;23.372;2023-05-01T11:24:44;95242.56;;;22.65;60.68
8075;BME280;4080;42.676;23.372;2023-05-01T11:27:13;95240.56;;;22.61;62.22
8075;BME280;4080;42.676;23.372;2023-05-01T11:29:45;95235.34;;;23.05;62.11
8075;BME280;4080;42.676;23.372;2023-05-01T11:32:21;95224.97;;;23.47;60.01
8075;BME280;4080;42.676;23.372;2023-05-01T11:34:50;95224.28;;;23.78;57.44
8075;BME280;4080;42.676;23.372;2023-05-01T11:37:17;95235.56;;;23.68;58.33
8075;BME280;4080;42.676;23.372;2023-05-01T11:39:50;95234.97;;;23.47;57.56
8075;BME280;4080;42.676;23.372;2023-05-01T11:42:19;95237.81;;;23.38;59.23
8075;BME280;4080;42.676;23.372;2023-05-01T11:45:07;95202.97;;;23.02;59.36
8075;BME280;4080;42.676;23.372;2023-05-01T11:47:35;95240.84;;;23.09;60.54
8075;BME280;4080;42.676;23.372;2023-05-01T11:50:04;95224.16;;;22.91;60.69
8075;BME280;4080;42.676;23.372;2023-05-01T11:52:41;95217.72;;;22.31;60.98
8075;BME280;4080;42.676;23.372;2023-05-01T11:55:08;95222.44;;;22.34;60.31
8075;BME280;4080;42.676;23.372;2023-05-01T11:57:44;95224.13;;;22.39;62.00
8075;BME280;4080;42.676;23.372;2023-05-01T12:00:12;95232.59;;;22.65;61.57
8075;BME280;4080;42.676;23.372;2023-05-01T12:02:40;95231.59;;;22.57;61.41
8075;BME280;4080;42.676;23.372;2023-05-01T12:05:22;95242.59;;;22.40;61.82
8075;BME280;4080;42.676;23.372;2023-05-01T12:07:49;95253.78;;;22.06;58.58
8075;BME280;4080;42.676;23.372;2023-05-01T12:10:16;95208.47;;;21.59;58.55
8075;BME280;4080;42.676;23.372;2023-05-01T12:12:43;95245.44;;;21.74;57.47
8075;BME280;4080;42.676;23.372;2023-05-01T12:15:10;95248.78;;;21.83;59.47
8075;BME280;4080;42.676;23.372;2023-05-01T12:17:37;95245.63;;;21.69;60.98
8075;BME280;4080;42.676;23.372;2023-05-01T12:20:05;95257.34;;;21.64;60.09
8075;BME280;4080;42.676;23.372;2023-05-01T12:22:34;95245.19;;;21.34;60.68
8075;BME280;4080;42.676;23.372;2023-05-01T12:25:01;95256.78;;;21.26;62.59
8075;BME280;4080;42.676;23.372;2023-05-01T12:27:28;95249.13;;;21.16;63.24
8075;BME280;4080;42.676;23.372;2023-05-01T12:29:57;95252.63;;;21.07;63.14
8075;BME280;4080;42.676;23.372;2023-05-01T12:32:29;95252.97;;;21.06;62.63
8075;BME280;4080;42.676;23.372;2023-05-01T12:34:56;95257.00;;;21.12;63.94
8075;BME280;4080;42.676;23.372;2023-05-01T12:37:29;95252.75;;;21.11;67.04
8075;BME280;4080;42.676;23.372;2023-05-01T12:39:58;95268.47;;;21.21;67.56
8075;BME280;4080;42.676;23.372;2023-05-01T12:42:25;95252.50;;;21.04;67.68
8075;BME280;4080;42.676;23.372;2023-05-01T12:44:58;95253.63;;;21.03;68.60
8075;BME280;4080;42.676;23.372;2023-05-01T12:47:26;95269.59;;;21.20;69.44
8075;BME280;4080;42.676;23.372;2023-05-01T12:50:00;95270.38;;;21.21;68.41
8075;BME280;4080;42.676;23.372;2023-05-01T12:52:27;95257.94;;;21.16;68.37
8075;BME280;4080;42.676;23.372;2023-05-01T12:55:02;95286.84;;;21.11;70.64
8075;BME280;4080;42.676;23.372;2023-05-01T12:57:30;95248.97;;;21.12;70.42
8075;BME280;4080;42.676;23.372;2023-05-01T12:59:58;95230.28;;;20.83;71.01
8075;BME280;4080;42.676;23.372;2023-05-01T13:02:29;95232.38;;;20.98;71.08
8075;BME280;4080;42.676;23.372;2023-05-01T13:05:05;95240.22;;;21.03;71.04
8075;BME280;4080;42.676;23.372;2023-05-01T13:10:29;95255.31;;;20.66;68.86
8075;BME280;4080;42.676;23.372;2023-05-01T13:12:57;95261.44;;;20.66;70.25
8075;BME280;4080;42.676;23.372;2023-05-01T13:15:24;95257.41;;;20.60;70.88
8075;BME280;4080;42.676;23.372;2023-05-01T13:17:50;95283.47;;;20.72;70.85
8075;BME280;4080;42.676;23.372;2023-05-01T13:20:24;95265.09;;;20.62;69.73
8075;BME280;4080;42.676;23.372;2023-05-01T13:22:52;95272.44;;;20.44;68.96
8075;BME280;4080;42.676;23.372;2023-05-01T13:25:19;95269.19;;;20.30;69.55
8075;BME280;4080;42.676;23.372;2023-05-01T13:27:50;95280.81;;;20.34;69.15